sensor_id;sensor_type;location;lat;lon;timestamp;pressure;altitude;pressure_sealevel;temperature;humidity
21547;BME280;41275;51.912;4.388;2023-03-13T00:04:46;100062.03;;;16.06;54.68
21547;BME280;41275;51.912;4.388;2023-03-13T00:10:08;100041.75;;;16.05;54.91
21547;BME280;41275;51.912;4.388;2023-03-13T00:15:29;100024.66;;;16.06;55.50
21547;BME280;41275;51.912;4.388;2023-03-13T00:20:59;100017.91;;;16.13;55.82
21547;BME280;41275;51.912;4.388;2023-03-13T00:26:23;100003.22;;;16.16;55.92
21547;BME280;41275;51.912;4.388;2023-03-13T00:31:45;99993.59;;;16.15;55.95
21547;BME280;41275;51.912;4.388;2023-03-13T00:37:06;99974.13;;;16.14;55.96
21547;BME280;41275;51.912;4.388;2023-03-13T00:42:27;99960.78;;;16.14;55.85
21547;BME280;41275;51.912;4.388;2023-03-13T00:47:48;99942.06;;;16.19;56.22
21547;BME280;41275;51.912;4.388;2023-03-13T00:53:09;99942.00;;;16.25;56.75
21547;BME280;41275;51.912;4.388;2023-03-13T00:58:34;99927.22;;;16.32;56.57
21547;BME280;41275;51.912;4.388;2023-03-13T01:04:01;99925.78;;;16.40;57.04
21547;BME280;41275;51.912;4.388;2023-03-13T01:09:23;99899.31;;;16.43;57.30
21547;BME280;41275;51.912;4.388;2023-03-13T01:14:44;99888.25;;;16.50;56.97
21547;BME280;41275;51.912;4.388;2023-03-13T01:20:06;99877.13;;;16.62;57.44
21547;BME280;41275;51.912;4.388;2023-03-13T01:25:27;99863.13;;;16.70;57.04
21547;BME280;41275;51.912;4.388;2023-03-13T01:30:49;99859.63;;;16.75;56.90
21547;BME280;41275;51.912;4.388;2023-03-13T01:36:10;99841.63;;;16.80;57.18
21547;BME280;41275;51.912;4.388;2023-03-13T01:41:32;99835.41;;;16.85;57.06
21547;BME280;41275;51.912;4.388;2023-03-13T01:46:53;99814.75;;;16.90;57.25
21547;BME280;41275;51.912;4.388;2023-03-13T01:52:23;99801.00;;;16.97;57.26
21547;BME280;41275;51.912;4.388;2023-03-13T01:57:49;99785.78;;;17.11;57.43
21547;BME280;41275;51.912;4.388;2023-03-13T02:03:14;99782.94;;;17.22;57.21
21547;BME280;41275;51.912;4.388;2023-03-13T02:08:40;99763.53;;;17.30;57.66
21547;BME280;41275;51.912;4.388;2023-03-13T02:14:03;99773.63;;;17.33;57.88
21547;BME280;41275;51.912;4.388;2023-03-13T02:25:01;99762.25;;;17.41;57.47
21547;BME280;41275;51.912;4.388;2023-03-13T02:30:27;99766.00;;;17.54;57.65
21547;BME280;41275;51.912;4.388;2023-03-13T02:35:48;99772.94;;;17.55;58.23
21547;BME280;41275;51.912;4.388;2023-03-13T02:41:10;99776.28;;;17.60;57.64
21547;BME280;41275;51.912;4.388;2023-03-13T02:46:46;99766.50;;;17.70;57.62
21547;BME280;41275;51.912;4.388;2023-03-13T02:52:29;99758.97;;;17.85;57.81
21547;BME280;41275;51.912;4.388;2023-03-13T02:57:49;99736.84;;;17.94;57.71
21547;BME280;41275;51.912;4.388;2023-03-13T03:03:10;99734.84;;;17.99;57.54
21547;BME280;41275;51.912;4.388;2023-03-13T03:08:33;99717.38;;;18.02;57.43
21547;BME280;41275;51.912;4.388;2023-03-13T03:13:54;99715.38;;;18.07;57.37
21547;BME280;41275;51.912;4.388;2023-03-13T03:19:15;99731.22;;;18.18;57.06
21547;BME280;41275;51.912;4.388;2023-03-13T03:24:36;99722.88;;;18.19;56.94
21547;BME280;41275;51.912;4.388;2023-03-13T03:29:58;99720.50;;;18.18;56.83
21547;BME280;41275;51.912;4.388;2023-03-13T03:35:19;99723.78;;;18.14;56.93
21547;BME280;41275;51.912;4.388;2023-03-13T03:40:40;99702.69;;;18.13;56.74
21547;BME280;41275;51.912;4.388;2023-03-13T03:46:01;99692.69;;;18.05;56.69
21547;BME280;41275;51.912;4.388;2023-03-13T03:51:23;99698.34;;;18.03;57.04
21547;BME280;41275;51.912;4.388;2023-03-13T03:56:44;99692.78;;;18.00;57.06
21547;BME280;41275;51.912;4.388;2023-03-13T04:02:05;99694.41;;;18.01;56.91
21547;BME280;41275;51.912;4.388;2023-03-13T04:07:26;99688.72;;;18.02;57.30
21547;BME280;41275;51.912;4.388;2023-03-13T04:12:48;99683.38;;;18.02;57.47
21547;BME280;41275;51.912;4.388;2023-03-13T04:18:09;99674.56;;;18.02;57.56
21547;BME280;41275;51.912;4.388;2023-03-13T04:23:30;99663.25;;;18.05;57.64
21547;BME280;41275;51.912;4.388;2023-03-13T04:28:51;99668.59;;;18.05;57.51
21547;BME280;41275;51.912;4.388;2023-03-13T04:34:13;99658.72;;;18.14;57.73
21547;BME280;41275;51.912;4.388;2023-03-13T04:39:34;99643.50;;;18.23;57.74
21547;BME280;41275;51.912;4.388;2023-03-13T04:44:55;99639.13;;;18.27;57.86
21547;BME280;41275;51.912;4.388;2023-03-13T04:50:16;99637.13;;;18.33;57.74
21547;BME280;41275;51.912;4.388;2023-03-13T04:55:37;99631.38;;;18.48;57.58
21547;BME280;41275;51.912;4.388;2023-03-13T05:00:59;99630.34;;;18.67;57.34
21547;BME280;41275;51.912;4.388;2023-03-13T05:06:20;99611.84;;;18.79;56.51
21547;BME280;41275;51.912;4.388;2023-03-13T05:11:41;99604.59;;;18.79;55.84
21547;BME280;41275;51.912;4.388;2023-03-13T05:17:02;99587.25;;;18.85;55.29
21547;BME280;41275;51.912;4.388;2023-03-13T05:22:23;99587.59;;;19.01;54.48
21547;BME280;41275;51.912;4.388;2023-03-13T05:27:45;99590.94;;;19.16;53.76
21547;BME280;41275;51.912;4.388;2023-03-13T05:33:06;99583.53;;;19.21;52.92
21547;BME280;41275;51.912;4.388;2023-03-13T05:38:27;99571.06;;;19.25;52.16
21547;BME280;41275;51.912;4.388;2023-03-13T05:43:48;99594.75;;;19.23;51.52
21547;BME280;41275;51.912;4.388;2023-03-13T05:49:09;99589.72;;;19.22;51.10
21547;BME280;41275;51.912;4.388;2023-03-13T05:54:31;99568.88;;;19.19;50.46
21547;BME280;41275;51.912;4.388;2023-03-13T05:59:53;99571.06;;;19.17;50.83
21547;BME280;41275;51.912;4.388;2023-03-13T06:05:14;99581.34;;;19.15;50.93
21547;BME280;41275;51.912;4.388;2023-03-13T06:10:35;99593.47;;;19.12;50.64
21547;BME280;41275;51.912;4.388;2023-03-13T06:15:57;99602.09;;;18.92;51.10
21547;BME280;41275;51.912;4.388;2023-03-13T06:21:18;99590.78;;;18.63;51.80
21547;BME280;41275;51.912;4.388;2023-03-13T06:26:39;99610.53;;;18.36;52.59
21547;BME280;41275;51.912;4.388;2023-03-13T06:32:01;99586.75;;;18.12;53.56
21547;BME280;41275;51.912;4.388;2023-03-13T06:37:22;99596.59;;;18.03;54.31
21547;BME280;41275;51.912;4.388;2023-03-13T06:42:43;99606.59;;;17.89;55.03
21547;BME280;41275;51.912;4.388;2023-03-13T06:48:04;99598.81;;;17.79;55.51
21547;BME280;41275;51.912;4.388;2023-03-13T06:53:26;99582.16;;;17.82;55.79
21547;BME280;41275;51.912;4.388;2023-03-13T06:58:48;99587.88;;;17.89;56.04
21547;BME280;41275;51.912;4.388;2023-03-13T07:04:12;99584.09;;;17.90;56.37
21547;BME280;41275;51.912;4.388;2023-03-13T07:09:33;99584.69;;;17.87;56.35
21547;BME280;41275;51.912;4.388;2023-03-13T07:14:54;99588.59;;;17.81;56.50
21547;BME280;41275;51.912;4.388;2023-03-13T07:20:16;99585.81;;;17.86;56.53
21547;BME280;41275;51.912;4.388;2023-03-13T07:25:37;99588.66;;;17.89;56.81
21547;BME280;41275;51.912;4.388;2023-03-13T07:31:06;99587.00;;;18.02;57.07
21547;BME280;41275;51.912;4.388;2023-03-13T07:36:28;99568.81;;;18.13;57.02
21547;BME280;41275;51.912;4.388;2023-03-13T07:41:50;99576.31;;;18.33;56.83
21547;BME280;41275;51.912;4.388;2023-03-13T07:47:11;99566.31;;;18.48;57.30
21547;BME280;41275;51.912;4.388;2023-03-13T07:52:33;99567.56;;;18.50;56.70
21547;BME280;41275;51.912;4.388;2023-03-13T07:57:54;99581.69;;;18.73;56.40
21547;BME280;41275;51.912;4.388;2023-03-13T08:03:15;99577.31;;;18.86;55.90
21547;BME280;41275;51.912;4.388;2023-03-13T08:08:38;99568.81;;;18.84;55.60
21547;BME280;41275;51.912;4.388;2023-03-13T08:13:59;99572.59;;;18.83;55.39
21547;BME280;41275;51.912;4.388;2023-03-13T08:19:20;99577.19;;;19.00;55.21
21547;BME280;41275;51.912;4.388;2023-03-13T08:24:41;99532.28;;;19.14;54.79
21547;BME280;41275;51.912;4.388;2023-03-13T08:30:03;99563.22;;;19.37;54.17
21547;BME280;41275;51.912;4.388;2023-03-13T08:35:25;99548.50;;;19.52;53.02
21547;BME280;41275;51.912;4.388;2023-03-13T08:40:46;99548.84;;;19.51;52.84
21547;BME280;41275;51.912;4.388;2023-03-13T08:46:07;99536.03;;;19.56;52.21
21547;BME280;41275;51.912;4.388;2023-03-13T08:51:28;99545.34;;;19.94;51.26
21547;BME280;41275;51.912;4.388;2023-03-13T08:56:49;99521.88;;;20.20;50.21
21547;BME280;41275;51.912;4.388;2023-03-13T09:02:11;99526.69;;;20.35;49.41
21547;BME280;41275;51.912;4.388;2023-03-13T09:07:32;99499.34;;;20.42;48.73
21547;BME280;41275;51.912;4.388;2023-03-13T09:12:53;99501.56;;;20.49;47.95
21547;BME280;41275;51.912;4.388;2023-03-13T09:18:15;99501.84;;;20.77;47.17
21547;BME280;41275;51.912;4.388;2023-03-13T09:23:36;99490.19;;;20.94;47.10
21547;BME280;41275;51.912;4.388;2023-03-13T09:28:58;99493.16;;;20.80;46.72
21547;BME280;41275;51.912;4.388;2023-03-13T09:34:19;99463.63;;;20.92;46.48
21547;BME280;41275;51.912;4.388;2023-03-13T09:39:40;99458.03;;;20.97;46.05
21547;BME280;41275;51.912;4.388;2023-03-13T09:45:15;99449.13;;;21.05;45.98
21547;BME280;41275;51.912;4.388;2023-03-13T09:50:48;99444.69;;;21.22;45.73
21547;BME280;41275;51.912;4.388;2023-03-13T09:56:21;99416.69;;;21.56;44.90
21547;BME280;41275;51.912;4.388;2023-03-13T10:01:45;99431.97;;;21.64;44.22
21547;BME280;41275;51.912;4.388;2023-03-13T10:07:34;99440.94;;;21.68;43.90
21547;BME280;41275;51.912;4.388;2023-03-13T10:13:07;99449.03;;;21.68;43.66
21547;BME280;41275;51.912;4.388;2023-03-13T10:18:31;99432.19;;;21.59;42.80
21547;BME280;41275;51.912;4.388;2023-03-13T10:24:05;99413.78;;;21.61;42.29
21547;BME280;41275;51.912;4.388;2023-03-13T10:29:32;99442.03;;;21.55;42.42
21547;BME280;41275;51.912;4.388;2023-03-13T10:35:00;99442.16;;;21.59;42.60
21547;BME280;41275;51.912;4.388;2023-03-13T10:40:25;99432.88;;;21.68;42.37
21547;BME280;41275;51.912;4.388;2023-03-13T10:45:47;99421.97;;;21.65;42.48
21547;BME280;41275;51.912;4.388;2023-03-13T10:51:20;99407.06;;;21.79;41.80
21547;BME280;41275;51.912;4.388;2023-03-13T10:56:42;99427.50;;;21.80;40.44
21547;BME280;41275;51.912;4.388;2023-03-13T11:02:24;99413.78;;;21.61;40.47
21547;BME280;41275;51.912;4.388;2023-03-13T11:07:46;99407.59;;;21.61;40.47
21547;BME280;41275;51.912;4.388;2023-03-13T11:13:25;99412.41;;;21.43;40.96
21547;BME280;41275;51.912;4.388;2023-03-13T11:19:08;99405.38;;;21.29;40.33
21547;BME280;41275;51.912;4.388;2023-03-13T11:24:58;99403.50;;;21.30;39.61
21547;BME280;41275;51.912;4.388;2023-03-13T11:30:43;99397.16;;;21.47;38.88
21547;BME280;41275;51.912;4.388;2023-03-13T11:42:29;99421.66;;;21.78;38.21
21547;BME280;41275;51.912;4.388;2023-03-13T11:48:14;99403.47;;;21.63;38.30
21547;BME280;41275;51.912;4.388;2023-03-13T11:54:03;99407.66;;;21.97;38.53
21547;BME280;41275;51.912;4.388;2023-03-13T11:59:47;99410.91;;;22.40;37.96
21547;BME280;41275;51.912;4.388;2023-03-13T12:05:14;99398.66;;;22.42;37.70
21547;BME280;41275;51.912;4.388;2023-03-13T12:10:45;99389.00;;;22.04;38.43
21547;BME280;41275;51.912;4.388;2023-03-13T12:16:14;99400.69;;;21.96;38.17
21547;BME280;41275;51.912;4.388;2023-03-13T12:21:42;99365.91;;;21.79;39.01
21547;BME280;41275;51.912;4.388;2023-03-13T12:27:14;99390.16;;;22.16;38.63
21547;BME280;41275;51.912;4.388;2023-03-13T12:32:39;99400.63;;;22.70;38.54
21547;BME280;41275;51.912;4.388;2023-03-13T12:38:18;99402.94;;;22.96;36.97
21547;BME280;41275;51.912;4.388;2023-03-13T12:43:43;99371.69;;;23.11;36.54
21547;BME280;41275;51.912;4.388;2023-03-13T12:49:32;99413.00;;;23.27;36.25
21547;BME280;41275;51.912;4.388;2023-03-13T13:00:43;99363.59;;;23.70;34.40
21547;BME280;41275;51.912;4.388;2023-03-13T13:11:46;99369.56;;;24.11;32.99
21547;BME280;41275;51.912;4.388;2023-03-13T13:22:48;99365.56;;;23.42;33.60
21547;BME280;41275;51.912;4.388;2023-03-13T13:33:42;99351.72;;;23.27;34.52
21547;BME280;41275;51.912;4.388;2023-03-13T13:39:24;99349.13;;;23.47;33.18
21547;BME280;41275;51.912;4.388;2023-03-13T13:50:27;99340.94;;;23.75;32.32
21547;BME280;41275;51.912;4.388;2023-03-13T13:55:48;99331.13;;;24.02;31.28
21547;BME280;41275;51.912;4.388;2023-03-13T14:01:15;99311.78;;;24.00;31.86
21547;BME280;41275;51.912;4.388;2023-03-13T14:06:36;99325.53;;;24.11;32.09
21547;BME280;41275;51.912;4.388;2023-03-13T14:11:58;99275.09;;;23.99;32.32
21547;BME280;41275;51.912;4.388;2023-03-13T14:17:20;99286.03;;;24.61;31.88
21547;BME280;41275;51.912;4.388;2023-03-13T14:22:48;99272.25;;;24.89;31.27
21547;BME280;41275;51.912;4.388;2023-03-13T14:28:27;99266.53;;;25.40;30.62
21547;BME280;41275;51.912;4.388;2023-03-13T14:33:49;99275.31;;;25.33;30.21
21547;BME280;41275;51.912;4.388;2023-03-13T14:39:16;99274.16;;;25.34;30.01
21547;BME280;41275;51.912;4.388;2023-03-13T14:44:43;99254.41;;;25.83;29.53
21547;BME280;41275;51.912;4.388;2023-03-13T14:50:12;99253.09;;;25.47;29.57
21547;BME280;41275;51.912;4.388;2023-03-13T14:55:35;99242.09;;;25.36;29.65
21547;BME280;41275;51.912;4.388;2023-03-13T15:01:11;99254.75;;;25.78;29.25
21547;BME280;41275;51.912;4.388;2023-03-13T15:06:33;99242.28;;;25.47;28.96
21547;BME280;41275;51.912;4.388;2023-03-13T15:11:58;99239.63;;;23.49;30.74
21547;BME280;41275;51.912;4.388;2023-03-13T15:17:25;99238.28;;;22.48;32.28
21547;BME280;41275;51.912;4.388;2023-03-13T15:22:46;99244.34;;;21.93;33.58
21547;BME280;41275;51.912;4.388;2023-03-13T15:28:14;99228.03;;;21.61;33.82
21547;BME280;41275;51.912;4.388;2023-03-13T15:33:36;99225.91;;;21.30;34.33
21547;BME280;41275;51.912;4.388;2023-03-13T15:38:57;99217.16;;;20.96;34.90
21547;BME280;41275;51.912;4.388;2023-03-13T15:44:18;99202.56;;;20.85;35.20
21547;BME280;41275;51.912;4.388;2023-03-13T15:49:40;99194.91;;;20.75;35.52
21547;BME280;41275;51.912;4.388;2023-03-13T15:55:01;99174.88;;;20.60;35.75
21547;BME280;41275;51.912;4.388;2023-03-13T16:00:24;99182.75;;;20.44;36.28
21547;BME280;41275;51.912;4.388;2023-03-13T16:05:46;99178.25;;;20.36;36.46
21547;BME280;41275;51.912;4.388;2023-03-13T16:11:10;99162.78;;;20.33;36.65
21547;BME280;41275;51.912;4.388;2023-03-13T16:16:33;99152.34;;;20.31;36.98
21547;BME280;41275;51.912;4.388;2023-03-13T16:21:55;99150.88;;;20.22;37.39
21547;BME280;41275;51.912;4.388;2023-03-13T16:27:19;99137.63;;;20.04;37.91
21547;BME280;41275;51.912;4.388;2023-03-13T16:32:41;99133.31;;;19.91;38.38
21547;BME280;41275;51.912;4.388;2023-03-13T16:38:14;99132.47;;;19.78;39.03
21547;BME280;41275;51.912;4.388;2023-03-13T16:43:43;99123.81;;;19.73;38.84
21547;BME280;41275;51.912;4.388;2023-03-13T16:49:06;99127.09;;;19.57;39.26
21547;BME280;41275;51.912;4.388;2023-03-13T16:54:27;99099.84;;;19.47;39.60
21547;BME280;41275;51.912;4.388;2023-03-13T16:59:49;99113.50;;;19.33;39.83
21547;BME280;41275;51.912;4.388;2023-03-13T17:05:10;99100.81;;;19.21;40.15
21547;BME280;41275;51.912;4.388;2023-03-13T17:10:35;99101.06;;;19.07;40.60
21547;BME280;41275;51.912;4.388;2023-03-13T17:15:56;99088.34;;;18.96;40.94
21547;BME280;41275;51.912;4.388;2023-03-13T17:21:23;99096.13;;;18.88;41.05
21547;BME280;41275;51.912;4.388;2023-03-13T17:26:44;99104.78;;;18.85;41.29
21547;BME280;41275;51.912;4.388;2023-03-13T17:32:05;99085.44;;;18.80;41.09
21547;BME280;41275;51.912;4.388;2023-03-13T17:37:28;99095.44;;;18.71;41.62
21547;BME280;41275;51.912;4.388;2023-03-13T17:42:49;99079.19;;;18.67;41.73
21547;BME280;41275;51.912;4.388;2023-03-13T17:48:11;99078.56;;;18.61;42.05
21547;BME280;41275;51.912;4.388;2023-03-13T17:53:32;99077.19;;;18.55;42.02
21547;BME280;41275;51.912;4.388;2023-03-13T17:58:56;99069.16;;;18.47;42.48
21547;BME280;41275;51.912;4.388;2023-03-13T18:04:18;99056.91;;;18.37;42.67
21547;BME280;41275;51.912;4.388;2023-03-13T18:09:39;99048.88;;;18.37;42.96
21547;BME280;41275;51.912;4.388;2023-03-13T18:15:00;99051.53;;;18.46;43.27
21547;BME280;41275;51.912;4.388;2023-03-13T18:20:24;99042.69;;;18.45;43.04
21547;BME280;41275;51.912;4.388;2023-03-13T18:25:46;99036.41;;;18.41;43.04
21547;BME280;41275;51.912;4.388;2023-03-13T18:31:09;99039.44;;;18.31;43.33
21547;BME280;41275;51.912;4.388;2023-03-13T18:36:30;99026.88;;;18.23;43.30
21547;BME280;41275;51.912;4.388;2023-03-13T18:41:52;99008.50;;;18.12;43.88
21547;BME280;41275;51.912;4.388;2023-03-13T18:47:16;99014.16;;;18.11;43.62
21547;BME280;41275;51.912;4.388;2023-03-13T18:52:37;99009.63;;;18.03;43.93
21547;BME280;41275;51.912;4.388;2023-03-13T18:57:59;99008.09;;;17.93;44.24
21547;BME280;41275;51.912;4.388;2023-03-13T19:03:20;98986.19;;;17.91;44.80
21547;BME280;41275;51.912;4.388;2023-03-13T19:08:46;98996.28;;;17.94;44.70
21547;BME280;41275;51.912;4.388;2023-03-13T19:14:08;98991.69;;;17.95;44.57
21547;BME280;41275;51.912;4.388;2023-03-13T19:19:29;98982.09;;;17.94;44.32
21547;BME280;41275;51.912;4.388;2023-03-13T19:24:52;98979.72;;;18.01;44.52
21547;BME280;41275;51.912;4.388;2023-03-13T19:30:22;98978.75;;;18.05;44.13
21547;BME280;41275;51.912;4.388;2023-03-13T19:35:51;98977.97;;;18.05;44.24
21547;BME280;41275;51.912;4.388;2023-03-13T19:41:20;98971.69;;;18.01;44.09
21547;BME280;41275;51.912;4.388;2023-03-13T19:46:51;98971.84;;;18.04;43.98
21547;BME280;41275;51.912;4.388;2023-03-13T19:52:48;98958.91;;;18.06;43.50
21547;BME280;41275;51.912;4.388;2023-03-13T19:58:17;98952.19;;;18.00;43.69
21547;BME280;41275;51.912;4.388;2023-03-13T20:03:45;98933.75;;;17.99;43.25
21547;BME280;41275;51.912;4.388;2023-03-13T20:09:08;98931.84;;;17.99;42.96
21547;BME280;41275;51.912;4.388;2023-03-13T20:14:30;98921.63;;;18.01;42.88
21547;BME280;41275;51.912;4.388;2023-03-13T20:19:51;98898.91;;;18.07;42.66
21547;BME280;41275;51.912;4.388;2023-03-13T20:25:12;98898.59;;;18.09;42.56
21547;BME280;41275;51.912;4.388;2023-03-13T20:30:40;98897.34;;;18.06;42.52
21547;BME280;41275;51.912;4.388;2023-03-13T20:36:05;98909.50;;;18.04;42.69
21547;BME280;41275;51.912;4.388;2023-03-13T20:41:27;98909.72;;;17.90;42.83
21547;BME280;41275;51.912;4.388;2023-03-13T20:46:50;98908.44;;;17.87;42.93
21547;BME280;41275;51.912;4.388;2023-03-13T20:52:12;98920.84;;;18.01;42.62
21547;BME280;41275;51.912;4.388;2023-03-13T20:57:35;98918.72;;;18.15;42.38
21547;BME280;41275;51.912;4.388;2023-03-13T21:02:56;98907.06;;;18.20;42.41
21547;BME280;41275;51.912;4.388;2023-03-13T21:08:17;98907.50;;;18.22;42.28
21547;BME280;41275;51.912;4.388;2023-03-13T21:13:40;98910.75;;;18.36;41.91
21547;BME280;41275;51.912;4.388;2023-03-13T21:19:01;98924.66;;;18.50;41.89
21547;BME280;41275;51.912;4.388;2023-03-13T21:24:22;98889.13;;;18.62;41.71
21547;BME280;41275;51.912;4.388;2023-03-13T21:29:44;98903.19;;;18.59;41.82
21547;BME280;41275;51.912;4.388;2023-03-13T21:35:07;98909.66;;;18.58;41.95
21547;BME280;41275;51.912;4.388;2023-03-13T21:40:29;98893.97;;;18.48;41.91
21547;BME280;41275;51.912;4.388;2023-03-13T21:45:50;98886.16;;;18.34;42.47
21547;BME280;41275;51.912;4.388;2023-03-13T21:51:11;98861.56;;;18.11;43.01
21547;BME280;41275;51.912;4.388;2023-03-13T21:56:32;98857.53;;;18.05;43.07
21547;BME280;41275;51.912;4.388;2023-03-13T22:01:54;98846.13;;;18.17;43.02
21547;BME280;41275;51.912;4.388;2023-03-13T22:07:15;98856.31;;;18.23;42.90
21547;BME280;41275;51.912;4.388;2023-03-13T22:12:36;98853.91;;;18.30;42.73
21547;BME280;41275;51.912;4.388;2023-03-13T22:17:57;98865.22;;;18.36;42.96
21547;BME280;41275;51.912;4.388;2023-03-13T22:23:19;98864.44;;;18.35;42.99
21547;BME280;41275;51.912;4.388;2023-03-13T22:28:40;98881.94;;;18.33;42.86
21547;BME280;41275;51.912;4.388;2023-03-13T22:34:01;98878.00;;;18.30;42.66
21547;BME280;41275;51.912;4.388;2023-03-13T22:39:22;98874.25;;;18.23;42.98
21547;BME280;41275;51.912;4.388;2023-03-13T22:44:44;98879.38;;;18.07;42.96
21547;BME280;41275;51.912;4.388;2023-03-13T22:50:05;98875.25;;;17.88;43.76
21547;BME280;41275;51.912;4.388;2023-03-13T22:55:26;98895.44;;;17.77;44.07
21547;BME280;41275;51.912;4.388;2023-03-13T23:00:48;98862.38;;;17.82;43.73
21547;BME280;41275;51.912;4.388;2023-03-13T23:06:20;98870.25;;;17.78;43.98
21547;BME280;41275;51.912;4.388;2023-03-13T23:11:42;98856.25;;;17.64;44.08
21547;BME280;41275;51.912;4.388;2023-03-13T23:17:03;98844.28;;;17.70;44.15
21547;BME280;41275;51.912;4.388;2023-03-13T23:22:24;98836.91;;;17.67;44.50
21547;BME280;41275;51.912;4.388;2023-03-13T23:27:49;98846.50;;;17.77;44.22
21547;BME280;41275;51.912;4.388;2023-03-13T23:33:10;98834.84;;;17.81;44.19
21547;BME280;41275;51.912;4.388;2023-03-13T23:38:31;98832.47;;;17.80;43.97
21547;BME280;41275;51.912;4.388;2023-03-13T23:43:52;98842.88;;;17.73;44.13
21547;BME280;41275;51.912;4.388;2023-03-13T23:49:14;98839.72;;;17.71;44.43
21547;BME280;41275;51.912;4.388;2023-03-13T23:54:35;98814.72;;;17.66;44.70
21547;BME280;41275;51.912;4.388;2023-03-13T23:59:56;98828.44;;;17.56;44.69
